Time;durP1;ratioP1;P1;durP2;ratioP2;P2;SDS_P1;SDS_P2;PMS_P1;PMS_P2;Temp;Humidity;BMP_temperature;BMP_pressure;BME280_temperature;BME280_humidity;BME280_pressure;Samples;Min_cycle;Max_cycle;Signal;HPM_P1;HPM_P2
2022/07/15 00:04:36;;;;;;;4.80;2.30;;;;;;;20.46;61.73;98686.09;234022;1200;139883;-60
2022/07/15 00:15:01;;;;;;;2.40;2.10;;;;;;;20.46;61.80;98691.59;234077;1199;139707;-57
2022/07/15 00:20:05;;;;;;;7.80;2.30;;;;;;;20.46;61.95;98705.07;234189;1199;140495;-58
2022/07/15 00:25:09;;;;;;;3.70;2.30;;;;;;;20.48;61.94;98700.02;234111;1199;140105;-60
2022/07/15 00:30:12;;;;;;;3.10;2.40;;;;;;;20.53;62.00;98691.88;234088;1200;139103;-60
2022/07/15 00:35:18;;;;;;;5.40;2.50;;;;;;;20.57;62.08;98699.79;233988;1200;139276;-61
2022/07/15 00:40:21;;;;;;;3.20;2.30;;;;;;;20.57;62.02;98713.34;233992;1202;140414;-57
2022/07/15 00:45:25;;;;;;;2.90;2.50;;;;;;;20.54;62.11;98704.36;234034;1200;139399;-62
2022/07/15 00:50:30;;;;;;;3.20;2.40;;;;;;;20.50;62.19;98695.49;234065;1201;139790;-61
2022/07/15 00:55:39;;;;;;;5.30;2.50;;;;;;;20.46;62.15;98688.98;234018;1200;139168;-61
2022/07/15 01:00:44;;;;;;;3.00;2.40;;;;;;;20.43;62.27;98685.91;234022;1200;139108;-61
2022/07/15 01:05:48;;;;;;;8.00;2.50;;;;;;;20.42;62.33;98680.13;233740;1202;139027;-59
2022/07/15 01:10:52;;;;;;;3.20;2.30;;;;;;;20.38;62.50;98680.00;233911;1201;138951;-59
2022/07/15 01:15:55;;;;;;;3.50;2.40;;;;;;;20.33;62.59;98679.02;234138;1199;138961;-60
2022/07/15 01:20:59;;;;;;;3.10;2.60;;;;;;;20.30;62.62;98676.39;234126;1199;139167;-59
2022/07/15 01:26:03;;;;;;;4.50;2.30;;;;;;;20.28;62.69;98681.63;234024;1200;142579;-61
2022/07/15 01:31:07;;;;;;;4.70;2.70;;;;;;;20.27;62.75;98688.35;233962;1201;140327;-61
2022/07/15 01:36:12;;;;;;;3.20;2.70;;;;;;;20.29;62.82;98688.70;234017;1201;139392;-61
2022/07/15 01:41:22;;;;;;;3.40;2.60;;;;;;;20.31;62.99;98681.63;234118;1200;138890;-62
2022/07/15 01:46:26;;;;;;;3.20;2.70;;;;;;;20.28;63.05;98682.88;233921;1200;139424;-62
2022/07/15 01:51:30;;;;;;;3.80;2.50;;;;;;;20.25;63.11;98679.56;234026;1200;139298;-63
2022/07/15 01:56:36;;;;;;;8.70;2.50;;;;;;;20.23;63.10;98671.34;234082;1202;139889;-62
2022/07/15 02:01:40;;;;;;;3.80;2.50;;;;;;;20.24;63.28;98668.17;233935;1201;139907;-61
2022/07/15 02:06:47;;;;;;;4.80;2.60;;;;;;;20.23;63.30;98664.83;233940;1200;139604;-61
2022/07/15 02:11:52;;;;;;;4.60;2.60;;;;;;;20.20;63.29;98669.52;233917;1202;139549;-62
2022/07/15 02:16:58;;;;;;;4.40;2.70;;;;;;;20.15;63.25;98670.01;233971;1200;139680;-62
2022/07/15 02:22:06;;;;;;;3.70;2.70;;;;;;;20.11;63.37;98675.34;234042;1200;140869;-62
2022/07/15 02:27:09;;;;;;;5.50;3.10;;;;;;;20.06;63.32;98675.83;234055;1200;139798;-61
2022/07/15 02:32:12;;;;;;;5.00;2.70;;;;;;;19.99;63.49;98681.48;234226;1201;139024;-62
2022/07/15 02:37:17;;;;;;;3.70;2.50;;;;;;;19.89;63.55;98684.89;234013;1200;139157;-62
2022/07/15 02:42:25;;;;;;;3.50;2.50;;;;;;;19.81;63.63;98689.52;234122;1200;139818;-62
2022/07/15 02:47:29;;;;;;;3.30;2.50;;;;;;;19.74;63.73;98697.14;234038;1199;139520;-60
2022/07/15 02:52:32;;;;;;;3.60;2.40;;;;;;;19.64;63.86;98697.05;234006;1200;138873;-60
2022/07/15 02:57:35;;;;;;;3.20;2.80;;;;;;;19.57;64.03;98699.54;233840;1199;139223;-60
2022/07/15 03:02:39;;;;;;;5.80;3.10;;;;;;;19.50;64.11;98703.02;234261;1199;139899;-60
2022/07/15 03:07:44;;;;;;;5.70;3.70;;;;;;;19.50;64.36;98710.38;234013;1200;138971;-58
2022/07/15 03:12:50;;;;;;;6.00;3.60;;;;;;;19.51;64.47;98718.77;234143;1199;139414;-61
2022/07/15 03:17:54;;;;;;;6.70;4.00;;;;;;;19.55;64.62;98726.95;233748;1201;139544;-62
2022/07/15 03:22:57;;;;;;;7.10;4.90;;;;;;;19.59;64.61;98734.58;233957;1201;139304;-61
2022/07/15 03:28:01;;;;;;;5.80;4.30;;;;;;;19.66;64.60;98738.83;233748;1201;140137;-62
2022/07/15 03:33:06;;;;;;;6.90;4.90;;;;;;;19.75;64.66;98749.17;233967;1202;139476;-60
2022/07/15 03:38:09;;;;;;;7.30;5.40;;;;;;;19.89;64.59;98754.27;234087;1201;142305;-60
2022/07/15 03:43:13;;;;;;;8.40;5.40;;;;;;;19.95;64.43;98764.16;234054;1200;139610;-60
2022/07/15 03:48:20;;;;;;;10.10;6.00;;;;;;;20.00;64.33;98774.45;233928;1202;139627;-60
2022/07/15 03:53:22;;;;;;;6.10;5.50;;;;;;;19.99;64.12;98781.60;234083;1200;139851;-60
2022/07/15 03:58:25;;;;;;;9.70;5.90;;;;;;;20.03;64.09;98787.50;233977;1202;140033;-60
2022/07/15 04:03:28;;;;;;;9.70;6.40;;;;;;;20.08;64.05;98792.92;234079;1200;139691;-60
2022/07/15 04:08:31;;;;;;;9.20;7.10;;;;;;;20.09;63.92;98788.27;234160;1200;139206;-60
2022/07/15 04:13:34;;;;;;;14.40;8.00;;;;;;;20.11;63.92;98778.42;234161;1200;139161;-60
2022/07/15 04:18:37;;;;;;;16.00;8.90;;;;;;;20.09;63.70;98777.16;234128;1199;139562;-60
2022/07/15 04:23:42;;;;;;;15.50;8.70;;;;;;;20.00;63.64;98774.89;234029;1200;140725;-61
2022/07/15 04:28:45;;;;;;;13.60;8.50;;;;;;;20.00;63.69;98782.19;233883;1201;140556;-60
2022/07/15 04:33:48;;;;;;;16.90;9.70;;;;;;;20.03;63.71;98794.02;233995;1201;230476;-62
2022/07/15 04:38:51;;;;;;;15.70;10.30;;;;;;;20.04;63.76;98835.68;234010;1199;140472;-58
2022/07/15 04:43:57;;;;;;;21.20;11.00;;;;;;;20.00;63.83;98855.49;234166;1200;139718;-61
2022/07/15 04:54:22;;;;;;;15.50;9.60;;;;;;;19.95;63.41;98867.39;234015;1200;140031;-59
2022/07/15 04:59:25;;;;;;;18.00;9.40;;;;;;;19.95;63.31;98878.05;233882;1199;140824;-61
2022/07/15 05:04:28;;;;;;;10.60;9.30;;;;;;;19.97;63.23;98887.95;234003;1199;139822;-59
2022/07/15 05:09:32;;;;;;;10.50;7.50;;;;;;;19.95;62.87;98899.12;233906;1200;138740;-57
2022/07/15 05:14:38;;;;;;;11.40;7.40;;;;;;;19.85;62.74;98908.98;234078;1201;139241;-61
2022/07/15 05:19:41;;;;;;;8.30;5.60;;;;;;;19.83;62.66;98914.06;233935;1199;138989;-58
2022/07/15 05:24:44;;;;;;;10.00;5.50;;;;;;;19.89;62.45;98916.83;233999;1199;139977;-58
2022/07/15 05:29:49;;;;;;;7.10;4.40;;;;;;;19.99;62.38;98920.85;234011;1200;139264;-58
2022/07/15 05:34:52;;;;;;;7.00;4.00;;;;;;;20.08;61.93;98926.36;234090;1199;139273;-58
2022/07/15 05:39:56;;;;;;;4.80;3.40;;;;;;;20.12;61.41;98934.60;234064;1200;139196;-57
2022/07/15 05:45:07;;;;;;;6.90;4.10;;;;;;;20.18;61.07;98939.05;234071;1201;139399;-58
2022/07/15 05:50:11;;;;;;;10.50;7.60;;;;;;;20.24;60.38;98948.67;234021;1201;139822;-58
2022/07/15 05:55:15;;;;;;;11.90;7.20;;;;;;;20.21;59.69;98952.82;233945;1200;139484;-56
2022/07/15 06:00:19;;;;;;;8.50;2.80;;;;;;;20.22;59.24;98957.96;233945;1200;139898;-58
2022/07/15 06:05:22;;;;;;;24.10;15.50;;;;;;;20.23;59.02;98967.36;233925;1201;139193;-57
2022/07/15 06:10:30;;;;;;;5.30;2.90;;;;;;;20.28;58.73;98966.59;233972;1200;139313;-54
2022/07/15 06:15:33;;;;;;;8.10;3.10;;;;;;;20.39;58.46;98971.66;234103;1199;139944;-57
2022/07/15 06:20:36;;;;;;;5.80;2.70;;;;;;;20.51;57.88;98981.39;234138;1200;139349;-57
2022/07/15 06:25:42;;;;;;;53.70;47.80;;;;;;;20.66;57.24;98984.35;233913;1201;139839;-57
2022/07/15 06:30:45;;;;;;;4.70;2.10;;;;;;;20.77;56.25;98991.85;233975;1201;139450;-58
2022/07/15 06:35:48;;;;;;;2.50;1.10;;;;;;;20.78;55.24;98996.95;234160;1200;139258;-56
2022/07/15 06:40:51;;;;;;;46.70;41.20;;;;;;;20.82;54.73;99001.11;234057;1200;139027;-55
2022/07/15 06:45:54;;;;;;;4.90;2.50;;;;;;;20.84;54.03;99004.29;234079;1200;139614;-58
2022/07/15 06:50:57;;;;;;;3.70;1.10;;;;;;;20.89;53.45;99010.78;233980;1201;138796;-55
2022/07/15 06:56:01;;;;;;;2.60;1.10;;;;;;;20.93;52.86;99016.55;234237;1199;139777;-57
2022/07/15 07:01:04;;;;;;;3.90;1.00;;;;;;;21.02;52.54;99017.04;234002;1199;140242;-56
2022/07/15 07:06:08;;;;;;;43.10;34.40;;;;;;;21.11;52.16;99019.77;233977;1201;139509;-57
2022/07/15 07:11:11;;;;;;;6.10;2.50;;;;;;;21.20;51.80;99021.97;233927;1200;139157;-57
2022/07/15 07:16:14;;;;;;;1.80;1.00;;;;;;;21.24;51.29;99031.60;233974;1199;138868;-57
2022/07/15 07:21:18;;;;;;;48.90;35.70;;;;;;;21.33;50.94;99033.95;233984;1199;139664;-56
2022/07/15 07:26:21;;;;;;;10.40;2.80;;;;;;;21.42;50.54;99036.60;234021;1200;139994;-54
2022/07/15 07:31:26;;;;;;;6.50;3.60;;;;;;;21.51;50.41;99040.73;233960;1200;139765;-56
2022/07/15 07:36:30;;;;;;;3.70;1.20;;;;;;;21.63;50.47;99041.95;233858;1201;139269;-57
2022/07/15 07:41:33;;;;;;;2.40;1.00;;;;;;;21.74;50.07;99045.98;233806;1201;139609;-56
2022/07/15 07:46:36;;;;;;;77.50;56.40;;;;;;;21.82;49.47;99053.59;233950;1199;138882;-57
2022/07/15 07:51:40;;;;;;;13.80;10.10;;;;;;;21.76;48.72;99056.55;233872;1200;139781;-54
2022/07/15 07:56:45;;;;;;;4.30;2.00;;;;;;;21.70;48.37;99060.45;234125;1201;139815;-54
2022/07/15 08:01:49;;;;;;;8.50;1.70;;;;;;;21.63;48.08;99061.73;234026;1200;139769;-52
2022/07/15 08:06:52;;;;;;;4.00;1.20;;;;;;;21.67;48.23;99069.61;234003;1199;139376;-55
2022/07/15 08:11:55;;;;;;;6.60;1.30;;;;;;;21.73;48.19;99073.29;234000;1200;139780;-55
2022/07/15 08:16:58;;;;;;;4.80;1.40;;;;;;;21.72;48.15;99073.75;233966;1199;139601;-55
2022/07/15 08:22:02;;;;;;;3.60;1.40;;;;;;;21.79;48.32;99067.78;233991;1200;139176;-55
2022/07/15 08:27:06;;;;;;;6.40;1.90;;;;;;;21.90;48.17;99076.73;233935;1200;139026;-57
2022/07/15 08:32:08;;;;;;;7.50;1.90;;;;;;;21.87;47.88;99085.30;234223;1199;139086;-57
2022/07/15 08:37:11;;;;;;;4.40;1.40;;;;;;;21.81;47.61;99087.26;233863;1201;140465;-57
2022/07/15 08:42:14;;;;;;;22.80;14.80;;;;;;;21.75;47.63;99089.73;233940;1200;139527;-55
2022/07/15 08:47:18;;;;;;;6.60;3.80;;;;;;;21.78;47.84;99091.52;234198;1199;139497;-57
2022/07/15 08:52:43;;;;;;;3.90;1.30;;;;;;;21.85;47.55;99096.45;234210;1199;139587;-56
2022/07/15 08:57:48;;;;;;;5.30;1.50;;;;;;;21.79;47.26;99098.93;234185;1199;138961;-57
2022/07/15 09:02:51;;;;;;;11.80;5.10;;;;;;;21.78;47.37;99098.08;234293;1199;139844;-54
2022/07/15 09:08:06;;;;;;;2.90;1.40;;;;;;;21.86;47.18;99106.02;234290;1199;138938;-57
2022/07/15 09:13:10;;;;;;;;;;;;;;;21.96;46.98;99103.71;234145;1199;139262;-55
2022/07/15 09:18:16;;;;;;;13.20;5.10;;;;;;;22.01;46.84;99099.75;234278;1199;125450;-56
2022/07/15 09:23:31;;;;;;;4.50;1.70;;;;;;;22.10;47.02;99104.17;234234;1199;139032;-57
2022/07/15 09:28:37;;;;;;;4.60;1.80;;;;;;;22.09;46.37;99106.85;233996;1199;138948;-57
2022/07/15 09:33:43;;;;;;;13.00;7.40;;;;;;;22.09;46.46;99106.61;234097;1200;139361;-58
2022/07/15 09:38:51;;;;;;;8.90;2.00;;;;;;;22.02;46.08;99109.77;234306;1199;139260;-58
2022/07/15 09:44:05;;;;;;;38.60;26.10;;;;;;;22.14;46.21;99109.30;234330;1199;139329;-56
2022/07/15 09:49:08;;;;;;;7.40;2.70;;;;;;;22.42;46.58;99106.52;234293;1199;139678;-59
2022/07/15 09:54:12;;;;;;;4.20;1.30;;;;;;;22.67;46.24;99106.46;234284;1199;138787;-58
2022/07/15 09:59:15;;;;;;;3.80;1.20;;;;;;;22.60;45.63;99108.57;234140;1200;139390;-58
2022/07/15 10:04:24;;;;;;;68.00;50.70;;;;;;;22.69;45.54;99110.73;234230;1199;139673;-60
2022/07/15 10:09:33;;;;;;;9.10;2.20;;;;;;;22.77;45.32;99111.09;234253;1199;139055;-59
2022/07/15 10:15:09;;;;;;;3.90;1.40;;;;;;;22.70;44.85;99115.82;234352;1199;139094;-60
2022/07/15 10:20:25;;;;;;;3.50;1.00;;;;;;;22.59;44.50;99116.40;234248;1199;138964;-60
2022/07/15 10:25:47;;;;;;;;;;;;;;;22.41;44.62;99115.27;234190;1199;138777;-58
2022/07/15 10:31:25;;;;;;;4.60;1.30;;;;;;;22.59;44.72;99112.91;234259;1200;125517;-59
2022/07/15 10:36:58;;;;;;;6.30;1.20;;;;;;;22.82;44.77;99109.64;233921;1199;139100;-57
2022/07/15 10:42:03;;;;;;;5.60;1.50;;;;;;;23.02;44.31;99111.23;234325;1199;139348;-59
2022/07/15 10:47:12;;;;;;;8.60;1.40;;;;;;;23.02;43.90;99107.97;234186;1199;139185;-58
2022/07/15 10:52:16;;;;;;;3.80;1.10;;;;;;;22.94;43.64;99116.08;234255;1199;139979;-58
2022/07/15 10:57:20;;;;;;;5.80;1.20;;;;;;;23.07;43.60;99114.64;234201;1199;139277;-59
2022/07/15 11:02:25;;;;;;;2.80;1.10;;;;;;;23.05;42.96;99120.58;234131;1199;141505;-57
2022/07/15 11:07:30;;;;;;;;;;;;;;;22.93;42.92;99121.59;234024;1199;139048;-58
2022/07/15 11:12:35;;;;;;;10.30;1.40;;;;;;;22.94;42.84;99123.67;234060;1201;126547;-57
2022/07/15 11:17:40;;;;;;;1.80;0.90;;;;;;;23.03;42.85;99117.94;233791;1200;139494;-59
2022/07/15 11:22:45;;;;;;;3.60;1.40;;;;;;;23.04;42.92;99118.75;233968;1200;139389;-58
2022/07/15 11:28:17;;;;;;;3.30;1.30;;;;;;;23.17;42.88;99122.56;234097;1199;141007;-59
2022/07/15 11:33:25;;;;;;;4.60;1.30;;;;;;;23.29;42.32;99126.56;233941;1200;140059;-59
2022/07/15 11:38:36;;;;;;;8.40;1.30;;;;;;;23.13;41.80;99132.06;234069;1200;139581;-59
2022/07/15 11:49:02;;;;;;;5.90;1.40;;;;;;;22.87;41.76;99133.11;233945;1199;139007;-58
2022/07/15 11:54:05;;;;;;;6.20;1.40;;;;;;;22.89;41.90;99144.61;234034;1200;139129;-58
2022/07/15 11:59:09;;;;;;;7.80;1.50;;;;;;;23.12;41.81;99141.37;233944;1200;139082;-58
2022/07/15 12:04:12;;;;;;;2.80;1.00;;;;;;;23.14;41.49;99138.41;233983;1200;139871;-58
2022/07/15 12:09:15;;;;;;;6.30;1.00;;;;;;;23.02;41.21;99145.98;233963;1200;139784;-58
2022/07/15 12:14:21;;;;;;;6.60;1.20;;;;;;;23.18;41.34;99141.55;234117;1200;140756;-56
2022/07/15 12:19:26;;;;;;;4.10;1.10;;;;;;;23.46;40.96;99138.66;233955;1200;138603;-57
2022/07/15 12:24:50;;;;;;;5.70;1.20;;;;;;;23.44;40.52;99145.90;233957;1202;138705;-57
2022/07/15 12:30:01;;;;;;;5.60;1.10;;;;;;;23.73;40.61;99148.93;233817;1202;139320;-57
2022/07/15 12:35:10;;;;;;;2.50;0.80;;;;;;;24.03;40.24;99142.16;233899;1201;138690;-57
2022/07/15 12:40:20;;;;;;;3.80;1.10;;;;;;;24.36;39.84;99147.27;233952;1201;139754;-56
2022/07/15 12:45:29;;;;;;;5.40;1.10;;;;;;;24.67;39.29;99143.49;234011;1199;140379;-58
2022/07/15 12:50:43;;;;;;;13.70;7.40;;;;;;;24.94;38.84;99141.02;234062;1199;140400;-58
2022/07/15 12:55:58;;;;;;;7.60;1.60;;;;;;;25.18;38.44;99137.59;234136;1199;139385;-56
2022/07/15 13:01:16;;;;;;;6.40;1.30;;;;;;;25.50;38.38;99137.54;234043;1199;139430;-56
2022/07/15 13:06:19;;;;;;;6.80;1.20;;;;;;;25.53;37.71;99141.54;233961;1199;139128;-57
2022/07/15 13:11:24;;;;;;;3.30;1.50;;;;;;;25.67;37.26;99136.15;234009;1199;140209;-58
2022/07/15 13:16:27;;;;;;;4.20;1.00;;;;;;;25.89;37.28;99135.98;233956;1202;138832;-56
2022/07/15 13:21:30;;;;;;;4.80;1.40;;;;;;;26.08;36.96;99131.89;233966;1200;139707;-57
2022/07/15 13:26:33;;;;;;;4.90;1.00;;;;;;;25.93;36.46;99134.05;234128;1200;139512;-58
2022/07/15 13:31:36;;;;;;;2.90;1.10;;;;;;;25.92;36.30;99135.02;233961;1199;138774;-57
2022/07/15 13:36:39;;;;;;;114.30;81.80;;;;;;;26.09;36.12;99135.34;234050;1200;141225;-58
2022/07/15 13:41:42;;;;;;;5.90;3.40;;;;;;;26.32;36.08;99137.09;233575;1200;139994;-58
2022/07/15 13:46:45;;;;;;;2.40;0.90;;;;;;;26.54;35.65;99138.01;233909;1201;139155;-56
2022/07/15 13:51:48;;;;;;;6.70;1.20;;;;;;;26.76;35.15;99130.79;233890;1201;139500;-56
2022/07/15 13:56:51;;;;;;;2.40;0.90;;;;;;;27.03;34.89;99133.31;234099;1200;139402;-59
2022/07/15 14:01:59;;;;;;;7.40;1.10;;;;;;;27.25;34.74;99135.28;234097;1200;139478;-57
2022/07/15 14:07:03;;;;;;;8.20;1.10;;;;;;;27.31;34.37;99129.36;234017;1200;139466;-58
2022/07/15 14:12:06;;;;;;;3.00;0.80;;;;;;;27.41;34.25;99142.76;234133;1200;139483;-59
2022/07/15 14:17:09;;;;;;;2.80;0.80;;;;;;;27.45;33.46;99140.67;234139;1200;139188;-59
2022/07/15 14:22:14;;;;;;;2.60;0.60;;;;;;;27.47;33.19;99140.90;234096;1200;139005;-59
2022/07/15 14:27:17;;;;;;;2.20;1.10;;;;;;;27.40;32.81;99142.75;234072;1199;139634;-59
2022/07/15 14:32:19;;;;;;;1.80;0.80;;;;;;;27.29;32.44;99138.42;234150;1200;139513;-59
2022/07/15 14:37:23;;;;;;;2.00;1.00;;;;;;;27.30;32.96;99133.10;234072;1200;140215;-59
2022/07/15 14:42:38;;;;;;;9.60;1.00;;;;;;;27.05;32.27;99138.16;234160;1199;139129;-59
2022/07/15 14:47:42;;;;;;;4.40;0.80;;;;;;;26.62;32.27;99138.08;234010;1200;138821;-58
2022/07/15 14:52:44;;;;;;;4.70;1.40;;;;;;;26.21;32.47;99134.88;234012;1199;141376;-59
2022/07/15 14:57:47;;;;;;;3.00;1.20;;;;;;;25.97;32.62;99135.53;234101;1200;139106;-59
2022/07/15 15:02:50;;;;;;;7.80;1.50;;;;;;;25.81;32.84;99136.25;234109;1200;138983;-59
2022/07/15 15:07:53;;;;;;;4.30;0.80;;;;;;;25.66;32.89;99138.85;233965;1201;138820;-59
2022/07/15 15:12:56;;;;;;;5.70;1.00;;;;;;;25.41;32.71;99137.92;233941;1200;140958;-59
2022/07/15 15:17:59;;;;;;;2.70;0.90;;;;;;;25.25;32.91;99140.55;233921;1202;139182;-59
2022/07/15 15:23:02;;;;;;;3.40;0.70;;;;;;;25.09;33.01;99145.27;233954;1200;139903;-56
2022/07/15 15:28:05;;;;;;;3.10;1.20;;;;;;;24.92;33.05;99150.23;233977;1202;139552;-57
2022/07/15 15:33:08;;;;;;;6.00;1.20;;;;;;;24.83;33.03;99152.52;233974;1201;139298;-58
2022/07/15 15:38:11;;;;;;;4.30;1.10;;;;;;;24.65;32.88;99145.08;234183;1199;139042;-59
2022/07/15 15:43:14;;;;;;;5.50;1.10;;;;;;;24.50;33.04;99148.72;233939;1201;139656;-59
2022/07/15 15:48:17;;;;;;;6.50;1.30;;;;;;;24.44;33.22;99147.64;234024;1200;139753;-58
2022/07/15 15:53:24;;;;;;;5.60;1.20;;;;;;;24.41;33.44;99139.25;233864;1200;139601;-58
2022/07/15 15:58:27;;;;;;;2.30;1.30;;;;;;;24.41;33.28;99143.19;233849;1203;139475;-59
2022/07/15 16:03:30;;;;;;;4.40;2.10;;;;;;;24.39;33.22;99145.64;233935;1201;139186;-57
2022/07/15 16:08:33;;;;;;;4.70;1.10;;;;;;;24.28;32.91;99146.89;234182;1199;138670;-58
2022/07/15 16:13:36;;;;;;;4.00;1.00;;;;;;;24.21;32.93;99147.77;234100;1200;139639;-57
2022/07/15 16:18:46;;;;;;;3.00;0.90;;;;;;;24.16;32.96;99146.33;233984;1201;139508;-59
2022/07/15 16:23:49;;;;;;;7.10;3.30;;;;;;;23.98;32.96;99151.29;233909;1202;138927;-59
2022/07/15 16:28:51;;;;;;;4.00;1.40;;;;;;;23.86;33.17;99151.77;233960;1203;139411;-58
2022/07/15 16:33:55;;;;;;;7.50;2.60;;;;;;;23.83;33.31;99154.44;233900;1201;139094;-57
2022/07/15 16:38:58;;;;;;;5.30;1.50;;;;;;;23.82;33.44;99154.81;234113;1200;139569;-59
2022/07/15 16:44:01;;;;;;;5.10;1.60;;;;;;;23.77;33.42;99158.52;234038;1201;139884;-57
2022/07/15 16:49:04;;;;;;;4.20;1.60;;;;;;;23.68;33.41;99157.02;234075;1199;139388;-59
2022/07/15 16:54:07;;;;;;;8.10;1.40;;;;;;;23.70;33.61;99155.69;234050;1199;138856;-58
2022/07/15 16:59:10;;;;;;;2.40;1.30;;;;;;;23.68;33.48;99154.45;234034;1200;139225;-57
2022/07/15 17:04:14;;;;;;;4.10;1.60;;;;;;;23.60;33.61;99156.74;234052;1200;139624;-59
2022/07/15 17:09:17;;;;;;;3.60;1.30;;;;;;;23.55;34.06;99158.73;233998;1200;139315;-60
2022/07/15 17:14:20;;;;;;;5.40;1.10;;;;;;;23.52;34.18;99168.01;234080;1201;138967;-60
2022/07/15 17:19:24;;;;;;;4.30;1.10;;;;;;;23.48;34.05;99166.29;233958;1201;139760;-59
2022/07/15 17:24:27;;;;;;;2.80;1.20;;;;;;;23.40;34.10;99169.50;233910;1201;139603;-59
2022/07/15 17:29:30;;;;;;;5.00;1.30;;;;;;;23.32;34.38;99168.27;233930;1200;139084;-60
2022/07/15 17:34:33;;;;;;;2.60;1.00;;;;;;;23.24;34.47;99172.27;233974;1201;139059;-59
2022/07/15 17:39:36;;;;;;;2.80;1.10;;;;;;;23.19;34.48;99174.95;233883;1200;138621;-59
2022/07/15 17:44:39;;;;;;;2.00;1.10;;;;;;;23.16;34.45;99181.52;234108;1199;139331;-59
2022/07/15 17:49:42;;;;;;;51.70;32.20;;;;;;;23.11;34.49;99180.77;233945;1201;139964;-57
2022/07/15 17:54:45;;;;;;;14.10;5.50;;;;;;;23.07;35.06;99178.17;233866;1201;139391;-58
2022/07/15 17:59:47;;;;;;;7.20;3.20;;;;;;;23.05;35.63;99181.06;233921;1200;139303;-57
2022/07/15 18:04:51;;;;;;;5.40;2.50;;;;;;;23.01;36.03;99179.70;233837;1201;139241;-58
2022/07/15 18:09:54;;;;;;;4.70;1.70;;;;;;;22.95;36.21;99186.39;233991;1199;139946;-60
2022/07/15 18:14:57;;;;;;;4.60;1.60;;;;;;;22.81;35.91;99194.36;234133;1199;140775;-59
2022/07/15 18:20:00;;;;;;;4.80;1.50;;;;;;;22.63;35.90;99199.46;233933;1200;139804;-59
2022/07/15 18:25:04;;;;;;;5.60;1.50;;;;;;;22.45;36.03;99202.87;233939;1199;139174;-59
2022/07/15 18:30:08;;;;;;;2.90;1.60;;;;;;;22.28;36.09;99205.77;233974;1199;139204;-59
2022/07/15 18:35:11;;;;;;;5.70;1.60;;;;;;;22.11;36.31;99208.86;234020;1199;138952;-58
2022/07/15 18:40:14;;;;;;;10.10;5.20;;;;;;;21.96;36.50;99213.77;233993;1199;139214;-59
2022/07/15 18:45:17;;;;;;;4.90;1.80;;;;;;;21.82;36.69;99228.98;234101;1199;140086;-58
2022/07/15 18:50:20;;;;;;;4.30;2.00;;;;;;;21.68;36.96;99237.70;234128;1199;140188;-58
2022/07/15 18:55:25;;;;;;;7.60;2.90;;;;;;;21.60;37.65;99245.75;233927;1201;138581;-59
2022/07/15 19:00:28;;;;;;;10.10;5.20;;;;;;;21.58;37.66;99252.46;233779;1200;139667;-57
2022/07/15 19:05:31;;;;;;;8.30;2.50;;;;;;;21.43;37.61;99260.60;233945;1200;139991;-58
2022/07/15 19:10:34;;;;;;;7.10;2.50;;;;;;;21.28;37.63;99263.79;233825;1201;139304;-59
2022/07/15 19:15:36;;;;;;;3.80;2.00;;;;;;;21.13;37.79;99268.61;234020;1200;139569;-60
2022/07/15 19:20:40;;;;;;;7.10;2.40;;;;;;;20.98;37.88;99269.73;233945;1199;138697;-58
2022/07/15 19:25:43;;;;;;;4.60;2.00;;;;;;;20.87;38.18;99272.66;233960;1199;139287;-59
2022/07/15 19:30:47;;;;;;;205.90;143.40;;;;;;;20.81;38.58;99274.79;233963;1200;139019;-60
2022/07/15 19:35:50;;;;;;;11.50;7.70;;;;;;;20.81;38.78;99274.72;233890;1200;139592;-59
2022/07/15 19:40:53;;;;;;;5.70;2.60;;;;;;;20.76;38.73;99278.66;233965;1200;139609;-60
2022/07/15 19:45:56;;;;;;;5.40;2.20;;;;;;;20.66;38.75;99282.77;233812;1200;139840;-59
2022/07/15 19:50:59;;;;;;;4.80;1.70;;;;;;;20.50;38.77;99285.19;233875;1200;139181;-59
2022/07/15 19:56:02;;;;;;;4.50;2.00;;;;;;;20.36;38.91;99285.91;233959;1201;139663;-58
2022/07/15 20:01:13;;;;;;;69.50;57.50;;;;;;;20.23;39.18;99285.19;233972;1199;139042;-59
2022/07/15 20:06:16;;;;;;;7.80;4.80;;;;;;;20.18;39.42;99283.20;233966;1200;139418;-57
2022/07/15 20:11:19;;;;;;;47.30;32.40;;;;;;;20.14;39.91;99281.23;233812;1200;139461;-59
2022/07/15 20:16:22;;;;;;;10.40;4.50;;;;;;;20.11;40.03;99285.32;233970;1200;139207;-59
2022/07/15 20:21:27;;;;;;;7.40;2.10;;;;;;;20.05;40.09;99293.23;233913;1199;139430;-60
2022/07/15 20:26:31;;;;;;;163.70;146.10;;;;;;;19.97;40.10;99291.69;234018;1200;139463;-59
2022/07/15 20:31:34;;;;;;;19.60;15.40;;;;;;;19.92;40.37;99290.88;233941;1200;139784;-58
2022/07/15 20:36:37;;;;;;;5.80;3.30;;;;;;;20.15;41.62;99288.65;233879;1201;139709;-59
2022/07/15 20:41:40;;;;;;;5.80;2.30;;;;;;;20.12;40.52;99293.16;233936;1200;139027;-58
2022/07/15 20:46:51;;;;;;;5.00;2.10;;;;;;;19.89;40.47;99303.77;233941;1201;139149;-58
2022/07/15 20:52:02;;;;;;;6.40;2.00;;;;;;;19.68;40.64;99303.27;233930;1200;161361;-59
2022/07/15 20:57:05;;;;;;;4.40;2.00;;;;;;;19.52;40.69;99309.29;234046;1199;138985;-57
2022/07/15 21:02:08;;;;;;;6.60;2.10;;;;;;;19.40;40.99;99307.89;234097;1201;138618;-58
2022/07/15 21:07:12;;;;;;;10.00;2.10;;;;;;;19.34;41.36;99310.42;233989;1201;139320;-58
2022/07/15 21:12:15;;;;;;;5.30;1.60;;;;;;;19.30;41.34;99311.59;233880;1201;139502;-56
2022/07/15 21:17:18;;;;;;;4.60;1.80;;;;;;;19.26;41.36;99313.54;233863;1201;138903;-58
2022/07/15 21:22:21;;;;;;;7.80;2.10;;;;;;;19.22;41.41;99313.73;233873;1201;139245;-59
2022/07/15 21:27:24;;;;;;;5.40;2.80;;;;;;;19.21;42.10;99315.33;233946;1201;139154;-57
2022/07/15 21:32:28;;;;;;;9.20;3.20;;;;;;;19.18;42.87;99319.52;234056;1201;139398;-57
2022/07/15 22:45:29;;;;;;;8.40;2.60;;;;;;;17.17;46.43;99336.83;231878;1212;636011;-60
2022/07/15 22:50:32;;;;;;;6.20;2.90;;;;;;;17.19;46.40;99334.99;233959;1203;138333;-60
2022/07/15 22:55:37;;;;;;;5.80;2.80;;;;;;;17.31;46.17;99335.30;233847;1203;138011;-60
2022/07/15 23:00:40;;;;;;;8.00;2.60;;;;;;;17.45;45.69;99333.85;233845;1203;138444;-60
2022/07/15 23:05:43;;;;;;;5.00;2.60;;;;;;;17.60;45.66;99333.83;233759;1205;138002;-60
2022/07/15 23:10:46;;;;;;;7.70;2.50;;;;;;;17.68;45.69;99339.00;233748;1204;138693;-59
2022/07/15 23:15:50;;;;;;;4.80;2.60;;;;;;;17.75;45.62;99337.20;233492;1204;138461;-59
2022/07/15 23:20:52;;;;;;;5.20;2.50;;;;;;;17.77;45.42;99339.93;233785;1204;138586;-59
2022/07/15 23:25:55;;;;;;;5.70;2.40;;;;;;;17.78;45.68;99340.73;233451;1205;138309;-61
2022/07/15 23:30:58;;;;;;;7.80;2.60;;;;;;;17.82;45.59;99341.12;233519;1205;138028;-61
2022/07/15 23:36:01;;;;;;;5.30;2.70;;;;;;;17.86;45.41;99340.39;233308;1204;139019;-57
2022/07/15 23:41:04;;;;;;;8.40;2.30;;;;;;;17.90;45.36;99343.45;233444;1205;138715;-57
2022/07/15 23:46:07;;;;;;;5.80;2.20;;;;;;;17.92;45.32;99347.61;233428;1205;138405;-59
2022/07/15 23:51:10;;;;;;;7.70;2.40;;;;;;;17.96;45.42;99347.27;233548;1205;139881;-58
2022/07/15 23:56:14;;;;;;;4.90;2.20;;;;;;;17.98;45.63;99341.02;233492;1205;138828;-56
